createdAt,value
2018-11-29T00:00:24.523Z,14.63
2018-11-29T00:02:52.963Z,16.27
2018-11-29T00:05:22.456Z,14.73
2018-11-29T00:07:51.301Z,14.97
2018-11-29T00:10:23.646Z,16.10
2018-11-29T00:12:53.535Z,14.80
2018-11-29T00:15:22.902Z,14.10
2018-11-29T00:17:52.131Z,15.07
2018-11-29T00:20:21.672Z,13.50
2018-11-29T00:22:51.189Z,14.10
2018-11-29T00:25:20.440Z,14.63
2018-11-29T00:27:49.334Z,15.60
2018-11-29T00:30:19.494Z,15.50
2018-11-29T00:32:48.559Z,17.17
2018-11-29T00:35:18.312Z,15.63
2018-11-29T00:37:47.367Z,15.77
2018-11-29T00:40:18.029Z,15.47
2018-11-29T00:42:46.470Z,15.60
2018-11-29T00:45:15.769Z,16.33
2018-11-29T00:47:44.748Z,16.20
2018-11-29T00:50:14.968Z,14.80
2018-11-29T00:52:44.552Z,17.80
2018-11-29T00:55:18.032Z,15.50
2018-11-29T00:57:46.656Z,17.98
2018-11-29T01:00:19.183Z,18.37
2018-11-29T01:02:47.694Z,18.23
2018-11-29T01:05:16.168Z,18.62
2018-11-29T01:07:45.289Z,18.60
2018-11-29T01:10:16.336Z,17.45
2018-11-29T01:12:45.893Z,17.17
2018-11-29T01:15:15.887Z,18.10
2018-11-29T01:17:45.250Z,18.40
2018-11-29T01:20:14.556Z,17.85
2018-11-29T01:22:43.681Z,17.90
2018-11-29T01:25:13.235Z,17.20
2018-11-29T01:27:42.833Z,17.65
2018-11-29T01:30:14.094Z,17.87
2018-11-29T01:32:43.133Z,14.90
2018-11-29T01:35:13.125Z,16.97
2018-11-29T01:37:41.803Z,14.23
2018-11-29T01:40:16.787Z,16.33
2018-11-29T01:42:46.420Z,14.47
2018-11-29T01:45:15.318Z,15.03
2018-11-29T01:47:43.783Z,14.60
2018-11-29T01:50:12.810Z,15.37
2018-11-29T01:52:41.899Z,14.27
2018-11-29T01:55:10.484Z,15.83
2018-11-29T01:57:39.016Z,16.30
2018-11-29T02:00:14.177Z,14.87
2018-11-29T02:02:42.741Z,15.47
2018-11-29T02:05:12.244Z,15.30
2018-11-29T02:07:40.887Z,15.43
2018-11-29T02:10:16.719Z,16.30
2018-11-29T02:12:45.297Z,15.80
2018-11-29T02:15:13.885Z,14.97
2018-11-29T02:17:42.415Z,17.37
2018-11-29T02:20:13.955Z,18.10
2018-11-29T02:22:42.560Z,17.77
2018-11-29T02:25:11.008Z,19.67
2018-11-29T02:27:39.786Z,18.40
2018-11-29T02:30:24.007Z,16.90
2018-11-29T02:32:53.334Z,16.63
2018-11-29T02:35:22.200Z,16.20
2018-11-29T02:37:51.054Z,16.70
2018-11-29T02:40:20.110Z,17.00
2018-11-29T02:42:49.850Z,16.57
2018-11-29T02:45:23.281Z,15.50
2018-11-29T02:47:51.804Z,15.77
2018-11-29T02:50:20.381Z,15.47
2018-11-29T02:52:48.925Z,15.53
2018-11-29T02:55:17.485Z,14.60
2018-11-29T02:57:46.113Z,17.27
2018-11-29T03:00:17.192Z,18.40
2018-11-29T03:02:45.742Z,18.85
2018-11-29T03:05:14.438Z,18.60
2018-11-29T03:07:43.095Z,18.90
2018-11-29T03:10:12.637Z,19.20
2018-11-29T03:12:41.581Z,18.98
2018-11-29T03:15:15.605Z,16.47
2018-11-29T03:17:44.663Z,19.55
2018-11-29T03:20:13.769Z,17.27
2018-11-29T03:22:42.521Z,17.70
2018-11-29T03:25:12.684Z,17.10
2018-11-29T03:27:41.133Z,17.13
2018-11-29T03:30:13.760Z,18.60
2018-11-29T03:32:42.372Z,16.60
2018-11-29T03:35:12.193Z,17.93
2018-11-29T03:37:40.711Z,17.23
2018-11-29T03:40:11.610Z,21.93
2018-11-29T03:50:06.244Z,15.23
2018-11-29T03:52:35.005Z,19.90
2018-11-29T03:59:59.680Z,18.23
2018-11-29T04:02:28.546Z,21.30
2018-11-29T04:04:57.115Z,21.33
2018-11-29T04:07:25.827Z,18.67
2018-11-29T04:09:54.951Z,21.35
2018-11-29T06:20:25.957Z,19.70
2018-11-29T06:22:54.434Z,16.60
2018-11-29T06:25:22.826Z,17.60
2018-11-29T06:27:51.255Z,20.32
2018-11-29T06:30:20.737Z,20.40
2018-11-29T06:32:50.317Z,20.88
2018-11-29T06:35:18.826Z,21.82
2018-11-29T06:37:47.355Z,21.73
2018-11-29T06:40:16.643Z,20.37
2018-11-29T06:42:45.236Z,21.40
2018-11-29T06:45:17.630Z,21.48
2018-11-29T06:47:46.513Z,19.10
2018-11-29T06:50:15.156Z,20.65
2018-11-29T06:52:44.709Z,21.70
2018-11-29T06:55:18.327Z,21.25
2018-11-29T06:57:46.736Z,20.88
2018-11-29T07:00:19.365Z,22.35
2018-11-29T07:02:47.753Z,22.95
2018-11-29T07:05:16.140Z,22.37
2018-11-29T07:07:44.916Z,21.45
2018-11-29T07:10:13.361Z,23.60
2018-11-29T07:12:41.796Z,22.10
2018-11-29T07:15:13.291Z,21.62
2018-11-29T07:17:43.065Z,21.50
2018-11-29T07:20:14.872Z,22.15
2018-11-29T07:22:43.372Z,21.82
2018-11-29T07:25:11.920Z,20.75
2018-11-29T07:27:40.423Z,20.57
2018-11-29T07:30:11.364Z,20.77
2018-11-29T07:32:39.748Z,21.25
2018-11-29T07:35:09.864Z,19.40
2018-11-29T07:37:38.675Z,18.13
2018-11-29T07:40:10.208Z,18.23
2018-11-29T07:42:38.339Z,18.27
2018-11-29T07:45:10.566Z,16.93
2018-11-29T07:47:38.984Z,17.30
2018-11-29T07:50:12.637Z,18.87
2018-11-29T07:52:41.084Z,20.50
2018-11-29T07:55:11.219Z,18.60
2018-11-29T07:57:39.773Z,19.50
2018-11-29T08:00:11.165Z,18.83
2018-11-29T08:02:39.512Z,18.83
2018-11-29T08:05:10.500Z,21.03
2018-11-29T08:07:39.558Z,19.50
2018-11-29T08:10:09.769Z,18.40
2018-11-29T08:12:38.227Z,18.70
2018-11-29T08:15:09.638Z,18.60
2018-11-29T08:17:38.063Z,18.67
2018-11-29T08:20:09.832Z,19.53
2018-11-29T08:22:38.253Z,19.43
2018-11-29T08:25:07.263Z,17.77
2018-11-29T08:27:35.748Z,18.77
2018-11-29T08:30:06.132Z,18.70
2018-11-29T08:32:34.544Z,18.77
2018-11-29T08:35:02.968Z,16.80
2018-11-29T08:37:31.461Z,16.03
2018-11-29T08:39:59.951Z,16.57
2018-11-29T08:42:28.405Z,17.90
2018-11-29T08:44:56.920Z,19.30
2018-11-29T08:47:25.439Z,17.67
2018-11-29T08:49:53.873Z,15.60
2018-11-29T08:52:22.484Z,14.87
2018-11-29T08:54:51.086Z,15.20
2018-11-29T08:57:19.540Z,15.80
2018-11-29T08:59:47.997Z,15.90
2018-11-29T09:02:16.524Z,16.30
2018-11-29T09:04:45.049Z,15.60
2018-11-29T09:07:13.484Z,17.00
2018-11-29T09:09:41.953Z,15.77
2018-11-29T09:12:10.449Z,16.80
2018-11-29T09:14:38.923Z,16.40
2018-11-29T09:17:07.404Z,14.57
2018-11-29T09:19:37.463Z,14.10
2018-11-29T09:22:04.624Z,15.87
2018-11-29T09:24:33.018Z,14.67
2018-11-29T09:27:01.744Z,17.20
2018-11-29T09:29:30.387Z,16.60
2018-11-29T09:31:58.922Z,14.47
2018-11-29T09:34:27.299Z,14.90
2018-11-29T09:36:55.741Z,13.87
2018-11-29T09:39:24.148Z,15.30
2018-11-29T09:41:52.589Z,15.97
2018-11-29T09:44:22.098Z,14.27
2018-11-29T09:46:50.522Z,13.00
2018-11-29T09:49:19.313Z,13.43
2018-11-29T09:51:47.699Z,13.13
2018-11-29T09:54:16.133Z,12.47
2018-11-29T09:56:44.783Z,11.37
2018-11-29T09:59:13.179Z,12.03
2018-11-29T10:01:41.653Z,11.77
2018-11-29T10:04:10.060Z,10.97
2018-11-29T10:06:38.683Z,11.70
2018-11-29T10:09:09.940Z,10.50
2018-11-29T10:11:38.369Z,10.93
2018-11-29T10:14:06.951Z,11.40
2018-11-29T10:16:35.353Z,13.07
2018-11-29T10:19:03.834Z,10.97
2018-11-29T10:21:32.204Z,11.17
2018-11-29T10:24:00.700Z,11.13
2018-11-29T10:26:29.095Z,12.27
2018-11-29T10:28:57.803Z,10.90
2018-11-29T10:31:26.222Z,10.07
2018-11-29T10:33:54.631Z,10.70
2018-11-29T10:36:23.361Z,10.10
2018-11-29T10:38:51.852Z,9.93
2018-11-29T10:41:20.408Z,10.10
2018-11-29T10:43:48.937Z,10.80
2018-11-29T10:46:17.357Z,12.13
2018-11-29T10:48:45.755Z,14.00
2018-11-29T10:51:14.162Z,11.33
2018-11-29T10:53:42.555Z,12.00
2018-11-29T10:56:10.984Z,10.70
2018-11-29T10:58:39.408Z,11.50
2018-11-29T11:01:13.301Z,12.10
2018-11-29T11:03:41.737Z,13.08
2018-11-29T11:06:10.289Z,10.88
2018-11-29T11:08:38.812Z,11.65
2018-11-29T11:11:07.903Z,11.90
2018-11-29T11:13:37.871Z,10.72
2018-11-29T11:16:07.009Z,10.80
2018-11-29T11:18:35.993Z,10.50
2018-11-29T11:21:04.532Z,10.10
2018-11-29T11:23:33.065Z,10.00
2018-11-29T11:26:01.647Z,11.00
2018-11-29T11:28:30.430Z,10.93
2018-11-29T11:30:59.042Z,10.90
2018-11-29T11:33:27.552Z,9.40
2018-11-29T11:35:55.946Z,10.32
2018-11-29T11:38:24.459Z,9.98
2018-11-29T11:40:52.998Z,9.43
2018-11-29T11:43:21.484Z,9.08
2018-11-29T11:45:50.639Z,10.20
2018-11-29T11:48:19.108Z,9.90
2018-11-29T11:50:47.592Z,9.08
2018-11-29T11:53:16.040Z,8.85
2018-11-29T11:55:44.441Z,8.83
2018-11-29T11:58:12.836Z,7.07
2018-11-29T12:35:21.273Z,8.33
2018-11-29T12:37:49.647Z,8.00
2018-11-29T12:40:18.085Z,7.97
2018-11-29T12:42:46.451Z,7.40
2018-11-29T12:45:15.256Z,7.00
2018-11-29T12:47:44.259Z,7.47
2018-11-29T12:50:19.593Z,6.40
2018-11-29T12:52:48.106Z,6.67
2018-11-29T12:55:17.616Z,8.30
2018-11-29T12:57:46.071Z,8.10
2018-11-29T13:00:16.787Z,9.28
2018-11-29T13:02:46.492Z,8.40
2018-11-29T13:05:14.996Z,7.60
2018-11-29T13:07:43.559Z,7.67
2018-11-29T13:10:12.785Z,8.43
2018-11-29T13:12:41.169Z,7.43
2018-11-29T13:15:14.028Z,8.13
2018-11-29T13:17:42.657Z,7.50
2018-11-29T13:20:13.841Z,6.90
2018-11-29T13:22:42.284Z,7.47
2018-11-29T13:25:13.971Z,8.10
2018-11-29T13:27:42.663Z,8.20
2018-11-29T13:30:12.465Z,6.50
2018-11-29T13:32:41.132Z,8.40
2018-11-29T13:35:17.636Z,7.00
2018-11-29T13:37:48.547Z,8.13
2018-11-29T13:42:45.366Z,8.30
2018-11-29T13:45:14.018Z,9.10
2018-11-29T13:47:42.701Z,8.03
2018-11-29T13:50:12.408Z,8.53
2018-11-29T13:52:40.808Z,7.30
2018-11-29T13:55:10.493Z,11.23
2018-11-29T13:57:39.041Z,9.20
2018-11-29T14:00:14.638Z,8.93
2018-11-29T14:02:46.943Z,8.20
2018-11-29T14:05:12.150Z,8.90
2018-11-29T14:07:40.562Z,7.87
2018-11-29T14:10:13.552Z,9.20
2018-11-29T14:12:42.022Z,8.10
2018-11-29T14:15:12.979Z,9.13
2018-11-29T14:17:41.603Z,9.30
2018-11-29T14:20:11.076Z,9.83
2018-11-29T14:22:39.488Z,9.27
2018-11-29T14:25:10.207Z,9.80
2018-11-29T14:27:38.691Z,9.73
2018-11-29T14:30:24.845Z,9.80
2018-11-29T14:32:54.175Z,8.97
2018-11-29T14:35:22.578Z,10.00
2018-11-29T14:37:51.107Z,10.20
2018-11-29T14:40:23.763Z,10.00
2018-11-29T14:42:52.166Z,10.43
2018-11-29T14:45:27.477Z,9.73
2018-11-29T14:47:56.286Z,10.00
2018-11-29T14:50:37.177Z,9.87
2018-11-29T14:53:06.746Z,9.97
2018-11-29T14:55:35.929Z,10.47
2018-11-29T14:58:04.391Z,10.10
2018-11-29T15:00:32.817Z,10.33
2018-11-29T15:03:02.776Z,10.23
2018-11-29T15:05:32.194Z,9.77
2018-11-29T15:08:00.580Z,9.90
2018-11-29T15:10:29.173Z,11.10
2018-11-29T15:12:57.654Z,10.43
2018-11-29T15:15:26.046Z,12.50
2018-11-29T15:17:54.809Z,12.57
2018-11-29T15:20:24.617Z,12.40
2018-11-29T15:22:53.325Z,10.60
2018-11-29T15:25:21.941Z,11.73
2018-11-29T15:27:50.460Z,11.03
2018-11-29T15:30:20.559Z,10.60
2018-11-29T15:32:48.715Z,9.83
2018-11-29T15:35:17.125Z,10.87
2018-11-29T15:37:45.620Z,11.30
2018-11-29T15:40:16.227Z,14.30
2018-11-29T15:42:44.712Z,15.33
2018-11-29T15:45:18.489Z,14.67
2018-11-29T15:47:47.044Z,13.40
2018-11-29T15:50:16.026Z,15.17
2018-11-29T15:52:44.399Z,12.90
2018-11-29T15:55:14.830Z,15.13
2018-11-29T15:57:43.484Z,12.70
2018-11-29T16:00:19.260Z,11.33
2018-11-29T16:02:48.338Z,10.87
2018-11-29T16:05:16.773Z,12.73
2018-11-29T16:07:45.323Z,14.50
2018-11-29T16:10:16.876Z,14.50
2018-11-29T16:12:45.359Z,14.90
2018-11-29T16:15:15.030Z,12.87
2018-11-29T16:17:44.184Z,13.10
2018-11-29T16:20:14.956Z,11.70
2018-11-29T16:22:43.388Z,11.80
2018-11-29T16:25:12.237Z,12.17
2018-11-29T16:27:40.593Z,12.60
2018-11-29T16:30:13.147Z,11.13
2018-11-29T16:32:41.810Z,11.90
2018-11-29T16:35:10.284Z,12.60
2018-11-29T16:37:39.440Z,12.27
2018-11-29T16:40:09.003Z,12.53
2018-11-29T16:42:37.471Z,12.30
2018-11-29T16:45:10.437Z,12.27
2018-11-29T16:47:38.997Z,13.20
2018-11-29T16:50:09.804Z,11.90
2018-11-29T16:52:38.238Z,11.70
2018-11-29T16:55:07.968Z,11.30
2018-11-29T16:57:36.547Z,11.80
2018-11-29T17:00:10.621Z,12.80
2018-11-29T17:02:39.104Z,13.10
2018-11-29T17:05:09.169Z,11.93
2018-11-29T17:07:37.660Z,11.33
2018-11-29T17:10:08.849Z,11.30
2018-11-29T17:12:37.366Z,13.97
2018-11-29T17:15:10.283Z,14.97
2018-11-29T17:17:38.787Z,13.10
2018-11-29T17:20:10.963Z,14.60
2018-11-29T17:22:39.394Z,15.00
2018-11-29T17:25:09.458Z,16.07
2018-11-29T17:27:38.091Z,15.50
2018-11-29T17:30:18.769Z,16.30
2018-11-29T17:32:47.702Z,16.20
2018-11-29T17:35:16.227Z,15.43
2018-11-29T17:37:44.747Z,15.67
2018-11-29T17:40:14.402Z,15.70
2018-11-29T17:42:43.033Z,16.40
2018-11-29T17:45:27.308Z,19.60
2018-11-29T17:47:58.430Z,17.37
2018-11-29T17:50:29.638Z,17.03
2018-11-29T17:52:58.259Z,17.13
2018-11-29T17:55:26.767Z,15.73
2018-11-29T17:57:55.220Z,15.87
2018-11-29T18:00:26.965Z,17.50
2018-11-29T18:02:55.573Z,16.90
2018-11-29T18:05:24.131Z,18.90
2018-11-29T18:07:52.631Z,17.20
2018-11-29T18:10:24.100Z,17.10
2018-11-29T18:13:03.178Z,18.12
2018-11-29T18:15:33.476Z,17.82
2018-11-29T18:18:02.042Z,17.67
2018-11-29T18:20:30.475Z,19.20
2018-11-29T18:22:59.025Z,18.30
2018-11-29T18:25:27.439Z,18.40
2018-11-29T18:27:55.935Z,18.55
2018-11-29T18:30:24.397Z,19.45
2018-11-29T18:32:52.871Z,18.82
2018-11-29T18:35:21.629Z,18.82
2018-11-29T18:37:50.255Z,20.85
2018-11-29T18:40:22.479Z,26.15
2018-11-29T18:42:54.355Z,22.30
2018-11-29T18:45:22.963Z,21.52
2018-11-29T18:47:52.799Z,22.52
2018-11-29T18:50:23.435Z,19.67
2018-11-29T18:52:52.581Z,19.12
2018-11-29T18:55:24.367Z,24.00
2018-11-29T18:57:53.311Z,21.05
2018-11-29T19:00:27.836Z,18.97
2018-11-29T19:02:57.079Z,19.10
2018-11-29T19:05:25.232Z,19.23
2018-11-29T19:07:53.704Z,20.02
2018-11-29T19:10:22.698Z,19.73
2018-11-29T19:12:58.386Z,20.55
2018-11-29T19:15:26.913Z,19.87
2018-11-29T19:17:55.595Z,21.37
2018-11-29T19:20:24.049Z,22.65
2018-11-29T19:22:52.705Z,20.77
2018-11-29T19:25:21.336Z,23.27
2018-11-29T19:27:50.218Z,23.25
2018-11-29T19:30:21.109Z,22.17
2018-11-29T19:32:53.396Z,23.60
2018-11-29T19:35:21.898Z,24.47
2018-11-29T19:37:50.505Z,24.43
2018-11-29T19:40:19.039Z,28.15
2018-11-29T19:42:47.522Z,28.87
2018-11-29T19:45:16.417Z,28.50
2018-11-29T19:47:45.832Z,28.90
2018-11-29T19:50:18.053Z,30.88
2018-11-29T19:52:49.908Z,28.35
2018-11-29T19:55:21.740Z,32.20
2018-11-29T19:57:50.955Z,32.20
2018-11-29T20:00:20.505Z,37.15
2018-11-29T20:02:50.380Z,31.30
2018-11-29T20:05:19.707Z,51.30
2018-11-29T20:07:48.825Z,25.82
2018-11-29T20:10:18.444Z,23.98
2018-11-29T20:13:00.419Z,26.97
2018-11-29T20:15:29.582Z,25.90
2018-11-29T20:17:58.950Z,21.90
2018-11-29T20:20:28.104Z,22.83
2018-11-29T20:22:56.799Z,23.60
2018-11-29T20:25:26.533Z,22.62
2018-11-29T20:27:55.093Z,21.90
2018-11-29T20:30:24.330Z,19.90
2018-11-29T20:32:54.230Z,20.20
2018-11-29T20:35:23.112Z,22.05
2018-11-29T20:37:52.853Z,22.03
2018-11-29T20:40:23.721Z,21.80
2018-11-29T20:42:53.369Z,21.02
2018-11-29T20:45:27.542Z,23.27
2018-11-29T20:47:56.075Z,21.40
2018-11-29T20:50:26.206Z,21.00
2018-11-29T20:52:56.117Z,23.67
2018-11-29T20:55:30.019Z,20.50
2018-11-29T20:57:58.637Z,22.03
2018-11-29T21:00:27.089Z,23.95
2018-11-29T21:02:55.604Z,26.15
2018-11-29T21:05:25.215Z,22.95
2018-11-29T21:07:58.700Z,23.55
2018-11-29T21:10:27.366Z,21.50
2018-11-29T21:12:55.864Z,21.90
2018-11-29T21:15:25.010Z,22.17
2018-11-29T21:17:53.531Z,21.68
2018-11-29T21:20:22.272Z,22.53
2018-11-29T21:22:51.381Z,22.30
2018-11-29T21:25:22.353Z,21.73
2018-11-29T21:27:50.966Z,22.40
2018-11-29T21:30:19.518Z,22.82
2018-11-29T21:32:48.522Z,21.70
2018-11-29T21:35:20.179Z,22.10
2018-11-29T21:37:48.940Z,21.20
2018-11-29T21:40:32.648Z,21.95
2018-11-29T21:43:01.212Z,21.42
2018-11-29T21:45:30.773Z,21.62
2018-11-29T21:47:59.412Z,22.67
2018-11-29T21:50:28.022Z,21.82
2018-11-29T21:52:56.556Z,20.92
2018-11-29T21:55:25.107Z,21.37
2018-11-29T21:57:53.600Z,20.92
2018-11-29T22:00:22.918Z,21.17
2018-11-29T22:02:53.749Z,21.02
2018-11-29T22:05:22.382Z,21.27
2018-11-29T22:07:50.899Z,20.85
2018-11-29T22:10:19.452Z,20.63
2018-11-29T22:12:47.957Z,20.72
2018-11-29T22:15:16.553Z,20.20
2018-11-29T22:18:01.516Z,20.77
2018-11-29T22:20:24.625Z,20.48
2018-11-29T22:22:53.084Z,19.05
2018-11-29T22:25:21.592Z,20.08
2018-11-29T22:27:50.200Z,18.77
2018-11-29T22:30:18.680Z,18.67
2018-11-29T22:32:47.212Z,18.73
2018-11-29T22:35:15.664Z,19.03
2018-11-29T22:37:44.088Z,19.35
2018-11-29T22:40:12.568Z,20.02
2018-11-29T22:42:41.117Z,19.65
2018-11-29T22:45:09.724Z,18.37
2018-11-29T22:47:38.284Z,17.75
2018-11-29T22:50:07.941Z,17.25
2018-11-29T22:52:36.529Z,17.67
2018-11-29T22:55:05.641Z,18.77
2018-11-29T22:57:34.124Z,17.73
2018-11-29T23:00:02.793Z,19.07
2018-11-29T23:02:31.362Z,19.90
2018-11-29T23:04:59.868Z,18.65
2018-11-29T23:07:28.688Z,19.65
2018-11-29T23:09:57.161Z,21.12
2018-11-29T23:12:25.778Z,20.12
2018-11-29T23:14:54.536Z,21.20
2018-11-29T23:17:23.032Z,21.70
2018-11-29T23:19:51.536Z,20.72
2018-11-29T23:22:20.012Z,20.05
2018-11-29T23:24:48.608Z,20.50
2018-11-29T23:27:17.145Z,21.87
2018-11-29T23:29:45.754Z,21.70
2018-11-29T23:32:14.315Z,22.73
2018-11-29T23:34:42.844Z,21.87
2018-11-29T23:37:11.441Z,23.62
2018-11-29T23:39:40.003Z,23.65
2018-11-29T23:42:08.647Z,23.90
2018-11-29T23:44:37.452Z,23.70
2018-11-29T23:47:06.130Z,22.83
2018-11-29T23:49:34.759Z,23.62
2018-11-29T23:52:03.205Z,24.77
2018-11-29T23:54:31.872Z,22.73
2018-11-29T23:57:00.368Z,23.22
2018-11-29T23:59:28.797Z,21.50
